Weather History for KSLH - December, 2012

Change the Weather History Date:

Tuesday, December 4, 2012

  Actual Average (WUND) Record (WUND)
Temperature  
Mean Temperature 45 °F -  
Max Temperature 61 °F - - (-1)
Min Temperature 29 °F - - (-1)
Degree Days  
Heating Degree Days 20    
Moisture  
Dew Point 33 °F    
Average Humidity 70    
Maximum Humidity 86    
Minimum Humidity 55    
Precipitation  
Precipitation 0.00 in - - ()
Sea Level Pressure  
Sea Level Pressure 29.88 in    
Wind  
Wind Speed 13 mph (West)    
Max Wind Speed 20 mph    
Max Gust Speed 33 mph    
Visibility 10 miles    
Events      
Averages and records for this station are not official NWS values.
T = Trace of Precipitation, MM = Missing Value Source: NWS Daily Summary

Daily Weather History Graph

Daily Weather History Graph

Search for Another Location

Airport or City:

Trip Planner

Search our weather history database for the weather conditions in past years. The results will help you decide how hot, cold, wet, or windy it might be!

Date:

Astronomy

Dec. 04, 2012 Rise Set
Actual Time 8:02 AM EST 4:54 PM EST
Civil Twilight 7:28 AM EST 5:28 PM EST
Nautical Twilight 6:51 AM EST 6:05 PM EST
Astronomical Twilight 6:15 AM EST 6:41 PM EST
Moon 10:53 PM EST (12/4) 11:45 AM EST (12/4)
Length of Visible Light 10h 00m
Length of Day
8h 52m
Waning Gibbous, 69% of the Moon is Illuminated
Dec 4
Waning Gibbous
Dec 6
Last Quarter
Dec 13
New
Dec 20
First Quarter
Dec 28
Full

Hourly Weather History & Observations

Time (EST) Temp. Windchill Dew Point Humidity Pressure Visibility Wind Dir Wind Speed Gust Speed Precip Events Conditions
12:15 AM 61.9 °F - 57.2 °F 85% 29.63 in 10.0 mi SW 15.0 mph 20.7 mph N/A   Overcast
12:36 AM 61.2 °F - 57.0 °F 86% 29.64 in 10.0 mi WSW 17.3 mph 27.6 mph N/A   Overcast
12:55 AM 60.1 °F - 55.2 °F 84% 29.65 in 10.0 mi WSW 15.0 mph 26.5 mph N/A   Overcast
1:15 AM 58.6 °F - 53.6 °F 83% 29.66 in 10.0 mi West 12.7 mph 26.5 mph N/A   Overcast
1:36 AM 57.4 °F - 52.9 °F 85% 29.68 in 7.0 mi WSW 11.5 mph 23.0 mph N/A   Overcast
1:55 AM 56.1 °F - 51.8 °F 85% 29.69 in 7.0 mi West 11.5 mph 19.6 mph N/A   Overcast
2:15 AM 54.5 °F - 49.1 °F 82% 29.71 in 10.0 mi West 10.4 mph - N/A   Mostly Cloudy
2:36 AM 53.1 °F - 48.2 °F 84% 29.74 in 10.0 mi West 13.8 mph - N/A   Scattered Clouds
2:55 AM 52.0 °F - 46.4 °F 81% 29.75 in 10.0 mi West 12.7 mph - N/A   Scattered Clouds
3:15 AM 50.9 °F - 45.7 °F 82% 29.75 in 10.0 mi West 12.7 mph 19.6 mph N/A   Clear
3:55 AM 49.1 °F - 41.9 °F 76% 29.77 in 10.0 mi West 10.4 mph - N/A   Clear
4:16 AM 48.2 °F - 41.7 °F 78% 29.77 in 10.0 mi WSW 12.7 mph 19.6 mph N/A   Clear
4:35 AM 47.5 °F - 41.0 °F 78% 29.78 in 10.0 mi WSW 13.8 mph - N/A   Clear
4:55 AM 46.6 °F - 40.1 °F 78% 29.77 in 10.0 mi WSW 11.5 mph 21.9 mph N/A   Clear
5:16 AM 46.2 °F 40.5 °F 39.4 °F 77% 29.78 in 10.0 mi WSW 12.7 mph 19.6 mph N/A   Clear
5:35 AM 45.7 °F 40.6 °F 38.3 °F 75% 29.79 in 10.0 mi WSW 10.4 mph 17.3 mph N/A   Clear
5:55 AM 45.5 °F 39.6 °F 37.6 °F 74% 29.79 in 10.0 mi WSW 12.7 mph 18.4 mph N/A   Clear
6:15 AM 44.8 °F 39.0 °F 37.4 °F 75% 29.80 in 10.0 mi WSW 11.5 mph - N/A   Clear
6:35 AM 44.6 °F 39.2 °F 37.0 °F 75% 29.80 in 10.0 mi WSW 10.4 mph 16.1 mph N/A   Clear
6:56 AM 44.6 °F 39.7 °F 36.5 °F 73% 29.81 in 10.0 mi WSW 9.2 mph - N/A   Clear
7:15 AM 44.6 °F 38.8 °F 36.1 °F 72% 29.83 in 10.0 mi WSW 11.5 mph 16.1 mph N/A   Clear
7:35 AM 44.1 °F 39.0 °F 36.1 °F 74% 29.83 in 10.0 mi WSW 9.2 mph 16.1 mph N/A   Clear
7:56 AM 43.9 °F 38.8 °F 36.1 °F 74% 29.84 in 10.0 mi WSW 9.2 mph - N/A   Clear
8:15 AM 43.7 °F 37.7 °F 36.1 °F 75% 29.84 in 10.0 mi WSW 11.5 mph - N/A   Clear
8:35 AM 43.9 °F 38.8 °F 36.3 °F 75% 29.84 in 10.0 mi WSW 9.2 mph - N/A   Clear
8:55 AM 44.1 °F 39.0 °F 36.3 °F 74% 29.85 in 10.0 mi WSW 9.2 mph - N/A   Clear
9:15 AM 44.6 °F 39.7 °F 36.0 °F 72% 29.85 in 10.0 mi WSW 9.2 mph - N/A   Clear
9:36 AM 45.0 °F 39.7 °F 36.0 °F 71% 29.85 in 10.0 mi WSW 10.4 mph 18.4 mph N/A   Clear
9:55 AM 45.5 °F 40.8 °F 35.6 °F 68% 29.86 in 10.0 mi WSW 9.2 mph 18.4 mph N/A   Clear
10:15 AM 45.7 °F 39.5 °F 35.4 °F 67% 29.86 in 10.0 mi WSW 13.8 mph 17.3 mph N/A   Clear
10:36 AM 45.9 °F 40.0 °F 35.2 °F 66% 29.86 in 10.0 mi WSW 12.7 mph 18.4 mph N/A   Clear
10:55 AM 46.0 °F 41.0 °F 35.2 °F 66% 29.86 in 10.0 mi WSW 10.4 mph 16.1 mph N/A   Clear
11:16 AM 46.4 °F 40.4 °F 35.2 °F 65% 29.85 in 10.0 mi West 13.8 mph 18.4 mph N/A   Clear
11:35 AM 46.2 °F 40.1 °F 34.5 °F 64% 29.85 in 10.0 mi West 13.8 mph 19.6 mph N/A   Scattered Clouds
11:55 AM 46.2 °F 40.5 °F 34.2 °F 63% 29.84 in 10.0 mi WSW 12.7 mph 21.9 mph N/A   Scattered Clouds
12:16 PM 46.2 °F 40.5 °F 34.5 °F 64% 29.84 in 10.0 mi SW 12.7 mph 20.7 mph N/A   Mostly Cloudy
12:35 PM 47.1 °F - 34.0 °F 60% 29.84 in 10.0 mi WSW 15.0 mph 20.7 mph N/A   Mostly Cloudy
1:16 PM 47.1 °F - 33.1 °F 58% 29.83 in 10.0 mi West 13.8 mph 20.7 mph N/A   Scattered Clouds
1:35 PM 45.1 °F 38.1 °F 32.5 °F 61% 29.83 in 10.0 mi West 16.1 mph 21.9 mph N/A   Scattered Clouds
1:55 PM 45.3 °F 39.7 °F 32.5 °F 61% 29.84 in 10.0 mi WSW 11.5 mph 20.7 mph N/A   Mostly Cloudy
2:16 PM 45.1 °F 40.8 °F 32.0 °F 60% 29.85 in 10.0 mi West 8.1 mph 19.6 mph N/A   Overcast
2:35 PM 44.2 °F 37.0 °F 32.0 °F 62% 29.86 in 10.0 mi West 16.1 mph 26.5 mph N/A   Overcast
2:55 PM 43.7 °F 35.7 °F 31.1 °F 61% 29.86 in 10.0 mi West 18.4 mph 27.6 mph N/A   Overcast
3:15 PM 43.0 °F 36.4 °F 30.9 °F 62% 29.87 in 10.0 mi West 12.7 mph 20.7 mph N/A   Overcast
3:35 PM 42.8 °F 37.0 °F 30.9 °F 63% 29.88 in 10.0 mi WNW 10.4 mph 20.7 mph N/A   Overcast
3:55 PM 42.1 °F 37.1 °F 30.9 °F 65% 29.90 in 10.0 mi West 8.1 mph - N/A   Overcast
4:15 PM 41.9 °F 35.4 °F 30.9 °F 65% 29.90 in 10.0 mi WNW 11.5 mph - N/A   Overcast
4:35 PM 40.1 °F 33.6 °F 31.1 °F 70% 29.92 in 10.0 mi WNW 10.4 mph 16.1 mph N/A   Overcast
4:55 PM 37.8 °F 29.8 °F 30.4 °F 75% 29.94 in 10.0 mi NNW 12.7 mph 18.4 mph N/A   Overcast
5:15 PM 37.4 °F 30.3 °F 30.0 °F 75% 29.95 in 10.0 mi NW 10.4 mph - N/A   Overcast
5:35 PM 36.5 °F 28.2 °F 28.4 °F 72% 29.97 in 10.0 mi NW 12.7 mph - N/A   Overcast
5:55 PM 35.2 °F 25.8 °F 26.4 °F 70% 29.98 in 10.0 mi NW 15.0 mph 23.0 mph N/A   Overcast
6:15 PM 34.7 °F 25.1 °F 24.6 °F 67% 30.00 in 10.0 mi WNW 15.0 mph 21.9 mph N/A   Overcast
6:35 PM 33.8 °F 22.5 °F 23.7 °F 67% 30.01 in 10.0 mi NW 19.6 mph 25.3 mph N/A   Overcast
6:55 PM 32.7 °F 22.5 °F 21.6 °F 64% 30.03 in 10.0 mi NW 15.0 mph 23.0 mph N/A   Overcast
7:16 PM 32.0 °F 21.2 °F 19.6 °F 60% 30.04 in 10.0 mi NW 16.1 mph 24.2 mph N/A   Overcast
7:35 PM 32.0 °F 20.1 °F 17.6 °F 55% 30.04 in 10.0 mi NW 19.6 mph 26.5 mph N/A   Overcast
7:55 PM 31.6 °F 20.4 °F 17.1 °F 55% 30.05 in 10.0 mi WNW 17.3 mph 28.8 mph N/A   Overcast
8:16 PM 31.3 °F 19.9 °F 17.6 °F 57% 30.05 in 10.0 mi NW 17.3 mph 31.1 mph N/A   Overcast
8:35 PM 31.1 °F 19.7 °F 18.0 °F 58% 30.06 in 10.0 mi NW 17.3 mph 33.4 mph N/A   Overcast
8:55 PM 31.1 °F 20.9 °F 18.1 °F 59% 30.07 in 10.0 mi WNW 13.8 mph 25.3 mph N/A   Overcast
9:16 PM 30.2 °F 18.9 °F 17.6 °F 60% 30.08 in 10.0 mi WNW 16.1 mph 27.6 mph N/A   Mostly Cloudy
9:35 PM 30.0 °F 19.1 °F 18.1 °F 61% 30.08 in 10.0 mi WNW 15.0 mph 27.6 mph N/A   Scattered Clouds
9:55 PM 30.2 °F 18.5 °F 18.7 °F 62% 30.09 in 10.0 mi WNW 17.3 mph 23.0 mph N/A   Mostly Cloudy
10:15 PM 29.8 °F 17.7 °F 19.2 °F 65% 30.09 in 10.0 mi WNW 18.4 mph 26.5 mph N/A   Scattered Clouds
10:35 PM 29.3 °F 17.7 °F 19.2 °F 66% 30.10 in 10.0 mi WNW 16.1 mph 24.2 mph N/A   Mostly Cloudy
10:56 PM 29.1 °F 20.0 °F 19.4 °F 67% 30.10 in 10.0 mi West 10.4 mph 23.0 mph N/A   Scattered Clouds
11:15 PM 29.3 °F 17.7 °F 19.2 °F 66% 30.10 in 10.0 mi WNW 16.1 mph 23.0 mph N/A   Scattered Clouds
11:35 PM 29.7 °F 17.8 °F 19.4 °F 66% 30.11 in 10.0 mi West 17.3 mph 23.0 mph N/A   Mostly Cloudy
11:55 PM 29.8 °F 19.3 °F 20.3 °F 68% 30.12 in 10.0 mi West 13.8 mph 20.7 mph N/A   Overcast